メインページ
METAR-TAF:

METAR-TAF

空港 :

セントジョンズ国際空港

セントジョンズ, ニューファンドランド・ラブラドール州, カナダ

緯度: 47-37N, 経度: 052-44W, 海抜: 134m

現時点の気象観測

当レポートは18分前の11:00(UTC)に作成
南/南東の風 32kt、最大40ktの突風を伴う
気温 1°C
湿度 100%
気圧 994 hPa
視程: 3.2km
高度400ftの曇り
小雨, 靄

METAR: CYYT 141100Z 15032G40KT 2SM -RA BR OVC004 01/01 A2935 RMK FG2SF6 PRESFR SLP945

時間: 07:48 (11:18 UTC)

予報

当レポートは59分前の10:19(UTC)に作成
予報は14日の 10時(UTC)から 15日の 06時(UTC)まで有効
南東の風 20kt、最大30ktの突風を伴う
視程: 1.6km
高度400ftの曇り
小雪, (弱い) 凍雨
14日の 10時(UTC)から 14日の 12時(UTC)まで徐々に
南/南東の風 35kt、最大45ktの突風を伴う
視程: 1.6km
高度300ftの曇り
小雨, 靄
14日の 1400時(UTC)から
西/南西の風 30kt、最大45ktの突風を伴う
視程: 10km
高度2000ftの雲は散在している
高度3000ftの千切れ雲あり
弱いにわか雨
14日の 1800時(UTC)から
西/南西の風 35kt、最大55ktの突風を伴う
視程: 6.4km
高度2000ftの雲は散在している
高度3000ftの千切れ雲あり
弱いにわか雨, 雪
14日の 2000時(UTC)から
西/南西の風 40kt、最大60ktの突風を伴う
視程: 3.2km
高度2000ftの雲は散在している
高度3000ftの千切れ雲あり
弱いにわか雪, 高い地吹雪

TAF: CYYT 141019Z 1410/1506 14020G30KT 1SM -SN -PL OVC004 BECMG 1410/1412 16035G45KT 1SM -RA BR OVC003 FM141400 24030G45KT P6SM -SHRA SCT020 BKN030 FM141800 25035G55KT 4SM -SHRASN SCT020 BKN030 FM142000 25040G60KT 2SM -SHSN BLSN SCT020 BKN030 RMK NXT FCST BY 141200Z

4,000以上の空港の気象観測と天気予報(METAR報とTAF報)

利用可能な観測所は地図上に黄色い丸と赤い丸で示す。

丸の上にカーソルを重ねると観測所名を参照できる。

次にクリックすると気象観測と天気予報を参照できる。

マップの切り替え:黒色「×」印の緑ボタンをクリックして拡大、「-」印の緑ボタンをクリックして縮小、緑色の三角印をクリックして隣りの地図に切り替え


METAR-TAF: